createdAt,value
2023-05-19T00:01:37.842Z,100.00
2023-05-19T00:04:07.130Z,100.00
2023-05-19T00:06:36.503Z,100.00
2023-05-19T00:09:09.774Z,100.00
2023-05-19T00:11:39.515Z,100.00
2023-05-19T00:14:09.868Z,100.00
2023-05-19T00:16:42.496Z,100.00
2023-05-19T00:19:10.955Z,100.00
2023-05-19T00:21:39.371Z,100.00
2023-05-19T00:24:07.674Z,100.00
2023-05-19T00:26:36.058Z,100.00
2023-05-19T00:29:06.088Z,100.00
2023-05-19T00:31:34.678Z,100.00
2023-05-19T00:34:03.320Z,100.00
2023-05-19T00:36:31.524Z,100.00
2023-05-19T00:38:59.537Z,100.00
2023-05-19T00:41:27.862Z,100.00
2023-05-19T00:43:56.208Z,100.00
2023-05-19T00:46:24.957Z,100.00
2023-05-19T00:48:53.492Z,100.00
2023-05-19T00:51:23.986Z,100.00
2023-05-19T00:53:52.447Z,100.00
2023-05-19T00:56:22.019Z,100.00
2023-05-19T00:58:51.368Z,100.00
2023-05-19T01:01:21.943Z,100.00
2023-05-19T01:03:51.830Z,100.00
2023-05-19T01:06:21.119Z,100.00
2023-05-19T01:08:51.802Z,100.00
2023-05-19T01:11:20.182Z,100.00
2023-05-19T01:13:49.179Z,100.00
2023-05-19T01:16:32.362Z,100.00
2023-05-19T01:19:22.257Z,100.00
2023-05-19T01:22:23.190Z,100.00
2023-05-19T01:25:26.693Z,100.00
2023-05-19T01:28:21.963Z,100.00
2023-05-19T01:30:54.369Z,100.00
2023-05-19T01:33:24.504Z,100.00
2023-05-19T01:35:55.628Z,100.00
2023-05-19T01:38:26.834Z,100.00
2023-05-19T01:40:56.394Z,100.00
2023-05-19T01:43:27.222Z,100.00
2023-05-19T01:45:59.019Z,100.00
2023-05-19T01:48:30.203Z,100.00
2023-05-19T01:50:59.511Z,100.00
2023-05-19T01:53:27.703Z,100.00
2023-05-19T01:55:57.719Z,100.00
2023-05-19T01:58:44.703Z,100.00
2023-05-19T02:01:38.801Z,100.00
2023-05-19T02:04:22.532Z,100.00
2023-05-19T02:07:19.116Z,100.00
2023-05-19T02:09:59.479Z,100.00
2023-05-19T02:12:47.180Z,100.00
2023-05-19T02:15:17.782Z,100.00
2023-05-19T02:17:50.991Z,100.00
2023-05-19T02:20:19.255Z,100.00
2023-05-19T02:22:48.317Z,100.00
2023-05-19T02:25:16.664Z,100.00
2023-05-19T02:27:44.793Z,100.00
2023-05-19T02:30:13.112Z,100.00
2023-05-19T02:32:41.116Z,100.00
2023-05-19T02:35:09.978Z,100.00
2023-05-19T02:37:38.237Z,100.00
2023-05-19T02:40:07.351Z,100.00
2023-05-19T02:42:35.590Z,100.00
2023-05-19T02:45:04.627Z,100.00
2023-05-19T02:47:34.614Z,100.00
2023-05-19T02:50:06.093Z,100.00
2023-05-19T02:52:34.478Z,100.00
2023-05-19T02:55:02.851Z,100.00
2023-05-19T02:57:31.908Z,100.00
2023-05-19T03:00:01.097Z,100.00
2023-05-19T03:02:29.869Z,100.00
2023-05-19T03:04:58.387Z,100.00
2023-05-19T03:07:27.112Z,100.00
2023-05-19T03:09:55.802Z,100.00
2023-05-19T03:12:24.733Z,100.00
2023-05-19T03:14:52.790Z,100.00
2023-05-19T03:17:21.654Z,100.00
2023-05-19T03:19:51.495Z,100.00
2023-05-19T03:22:21.203Z,100.00
2023-05-19T03:24:51.329Z,100.00
2023-05-19T03:27:19.589Z,100.00
2023-05-19T03:29:48.041Z,100.00
2023-05-19T03:32:16.472Z,100.00
2023-05-19T03:34:44.869Z,100.00
2023-05-19T03:37:13.533Z,100.00
2023-05-19T03:39:41.979Z,100.00
2023-05-19T03:42:10.308Z,100.00
2023-05-19T03:44:38.922Z,100.00
2023-05-19T03:47:07.361Z,100.00
2023-05-19T03:49:54.206Z,100.00
2023-05-19T03:52:28.592Z,100.00
2023-05-19T03:55:08.494Z,100.00
2023-05-19T03:57:37.963Z,100.00
2023-05-19T04:00:06.989Z,100.00
2023-05-19T04:02:41.409Z,100.00
2023-05-19T04:05:11.005Z,100.00
2023-05-19T04:07:39.353Z,100.00
2023-05-19T04:10:08.553Z,100.00
2023-05-19T04:12:36.829Z,100.00
2023-05-19T04:15:08.326Z,100.00
2023-05-19T04:17:36.581Z,100.00
2023-05-19T04:20:08.361Z,100.00
2023-05-19T04:22:36.601Z,100.00
2023-05-19T04:25:05.731Z,100.00
2023-05-19T04:27:36.855Z,100.00
2023-05-19T04:30:06.368Z,100.00
2023-05-19T04:32:34.576Z,100.00
2023-05-19T04:35:03.523Z,100.00
2023-05-19T04:37:32.549Z,100.00
2023-05-19T04:40:00.811Z,100.00
2023-05-19T04:42:30.911Z,100.00
2023-05-19T04:45:00.425Z,100.00
2023-05-19T04:47:30.184Z,100.00
2023-05-19T04:50:00.898Z,100.00
2023-05-19T04:52:29.199Z,100.00
2023-05-19T04:54:57.630Z,100.00
2023-05-19T04:57:26.122Z,100.00
2023-05-19T05:00:00.116Z,100.00
2023-05-19T05:02:29.828Z,100.00
2023-05-19T05:04:58.428Z,100.00
2023-05-19T05:07:27.153Z,100.00
2023-05-19T05:09:56.487Z,100.00
2023-05-19T05:12:25.415Z,100.00
2023-05-19T05:14:54.099Z,100.00
2023-05-19T05:17:23.120Z,100.00
2023-05-19T05:19:51.904Z,100.00
2023-05-19T05:22:21.184Z,100.00
2023-05-19T05:24:50.596Z,100.00
2023-05-19T05:27:19.992Z,100.00
2023-05-19T05:29:48.231Z,100.00
2023-05-19T05:32:17.423Z,100.00
2023-05-19T05:34:46.563Z,100.00
2023-05-19T05:37:15.712Z,100.00
2023-05-19T05:39:43.832Z,100.00
2023-05-19T05:42:12.470Z,100.00
2023-05-19T05:44:41.436Z,100.00
2023-05-19T05:47:12.421Z,100.00
2023-05-19T05:49:42.170Z,100.00
2023-05-19T05:52:12.809Z,100.00
2023-05-19T05:54:46.553Z,100.00
2023-05-19T05:57:16.548Z,100.00
2023-05-19T05:59:47.646Z,100.00
2023-05-19T06:02:19.501Z,100.00
2023-05-19T06:04:48.102Z,100.00
2023-05-19T06:07:16.839Z,100.00
2023-05-19T06:09:46.148Z,100.00
2023-05-19T06:12:14.289Z,100.00
2023-05-19T06:14:46.703Z,100.00
2023-05-19T06:17:27.271Z,100.00
2023-05-19T06:19:55.720Z,100.00
2023-05-19T06:22:24.106Z,100.00
2023-05-19T06:24:52.321Z,100.00
2023-05-19T06:27:21.075Z,100.00
2023-05-19T06:29:49.685Z,100.00
2023-05-19T06:32:18.654Z,100.00
2023-05-19T06:34:54.184Z,100.00
2023-05-19T06:37:23.397Z,100.00
2023-05-19T06:39:54.982Z,100.00
2023-05-19T06:42:24.367Z,100.00
2023-05-19T06:44:59.209Z,100.00
2023-05-19T06:47:28.428Z,100.00
2023-05-19T06:49:57.179Z,100.00
2023-05-19T06:52:28.123Z,100.00
2023-05-19T06:54:56.973Z,100.00
2023-05-19T06:57:25.229Z,100.00
2023-05-19T06:59:53.493Z,100.00
2023-05-19T07:02:21.922Z,100.00
2023-05-19T07:04:52.890Z,100.00
2023-05-19T07:07:22.975Z,100.00
2023-05-19T07:09:51.903Z,100.00
2023-05-19T07:12:20.087Z,100.00
2023-05-19T07:14:48.869Z,100.00
2023-05-19T07:17:17.688Z,100.00
2023-05-19T07:19:46.495Z,100.00
2023-05-19T07:22:16.785Z,100.00
2023-05-19T07:24:45.508Z,99.92
2023-05-19T07:27:13.780Z,100.00
2023-05-19T07:29:42.025Z,100.00
2023-05-19T07:32:10.132Z,100.00
2023-05-19T07:34:38.508Z,96.44
2023-05-19T07:37:07.269Z,98.21
2023-05-19T07:39:36.153Z,97.55
2023-05-19T07:42:04.944Z,94.70
2023-05-19T07:44:33.141Z,93.51
2023-05-19T07:47:03.731Z,93.42
2023-05-19T07:49:32.445Z,90.46
2023-05-19T07:52:01.453Z,86.33
2023-05-19T07:54:29.963Z,91.47
2023-05-19T07:56:58.315Z,91.70
2023-05-19T07:59:26.356Z,91.01
2023-05-19T08:01:54.543Z,92.69
2023-05-19T08:04:22.752Z,92.47
2023-05-19T08:06:53.111Z,92.75
2023-05-19T08:09:21.203Z,92.28
2023-05-19T08:11:50.066Z,92.47
2023-05-19T08:14:18.409Z,87.37
2023-05-19T08:16:46.670Z,91.94
2023-05-19T08:19:15.326Z,92.07
2023-05-19T08:21:45.013Z,87.46
2023-05-19T08:24:13.264Z,90.29
2023-05-19T08:26:41.971Z,86.51
2023-05-19T08:29:10.261Z,89.56
2023-05-19T08:31:38.442Z,90.64
2023-05-19T08:34:07.090Z,90.45
2023-05-19T08:36:35.736Z,88.71
2023-05-19T08:39:04.214Z,87.60
2023-05-19T08:41:33.149Z,88.58
2023-05-19T08:44:01.642Z,86.44
2023-05-19T08:46:30.171Z,86.26
2023-05-19T08:49:10.557Z,85.95
2023-05-19T08:51:54.801Z,83.24
2023-05-19T08:54:30.388Z,81.04
2023-05-19T08:56:59.223Z,81.25
2023-05-19T08:59:29.219Z,81.83
2023-05-19T09:01:58.423Z,80.15
2023-05-19T09:04:29.941Z,76.35
2023-05-19T09:07:02.974Z,74.95
2023-05-19T09:09:31.170Z,76.87
2023-05-19T09:11:59.385Z,74.07
2023-05-19T09:14:28.805Z,74.53
2023-05-19T09:16:57.145Z,69.36
2023-05-19T09:19:29.259Z,69.91
2023-05-19T09:22:03.377Z,67.51
2023-05-19T09:27:44.076Z,65.64
2023-05-19T09:30:15.191Z,63.85
2023-05-19T09:32:44.823Z,63.56
2023-05-19T09:35:13.846Z,65.78
2023-05-19T09:37:43.223Z,64.06
2023-05-19T09:40:14.952Z,65.17
2023-05-19T09:42:44.473Z,67.54
2023-05-19T09:45:12.885Z,66.58
2023-05-19T09:47:42.516Z,65.05
2023-05-19T09:50:14.289Z,65.88
2023-05-19T09:52:45.394Z,66.99
2023-05-19T09:55:41.137Z,66.04
2023-05-19T09:58:11.487Z,68.22
2023-05-19T10:00:41.450Z,68.67
2023-05-19T10:03:10.607Z,66.44
2023-05-19T10:05:40.063Z,66.55
2023-05-19T10:08:10.512Z,65.42
2023-05-19T10:10:39.394Z,65.68
2023-05-19T10:13:08.322Z,67.36
2023-05-19T10:15:53.692Z,69.39
2023-05-19T10:18:27.375Z,70.62
2023-05-19T10:20:58.274Z,71.57
2023-05-19T10:23:26.939Z,71.44
2023-05-19T10:25:59.286Z,73.05
2023-05-19T10:28:40.850Z,74.03
2023-05-19T10:31:13.707Z,74.74
2023-05-19T10:34:11.134Z,74.24
2023-05-19T10:36:55.970Z,71.09
2023-05-19T10:39:35.598Z,72.42
2023-05-19T10:42:19.678Z,75.05
2023-05-19T10:45:10.456Z,73.95
2023-05-19T10:47:41.691Z,74.13
2023-05-19T10:50:11.332Z,75.21
2023-05-19T10:52:40.850Z,70.48
2023-05-19T10:55:15.683Z,71.82
2023-05-19T10:58:01.802Z,70.38
2023-05-19T11:00:31.996Z,72.79
2023-05-19T11:03:16.841Z,67.82
2023-05-19T11:05:51.029Z,65.19
2023-05-19T11:08:33.774Z,66.55
2023-05-19T11:11:18.026Z,64.93
2023-05-19T11:13:55.111Z,60.61
2023-05-19T11:16:31.616Z,58.07
2023-05-19T11:19:00.193Z,54.43
2023-05-19T11:21:49.285Z,56.30
2023-05-19T11:24:36.780Z,51.53
2023-05-19T11:27:23.488Z,52.55
2023-05-19T11:29:52.587Z,52.55
2023-05-19T11:32:22.793Z,50.01
2023-05-19T11:34:51.583Z,47.95
2023-05-19T11:37:20.273Z,49.23
2023-05-19T11:39:48.802Z,49.25
2023-05-19T11:42:17.036Z,50.42
2023-05-19T11:44:46.346Z,49.86
2023-05-19T11:47:15.763Z,48.50
2023-05-19T11:49:57.622Z,46.03
2023-05-19T11:52:27.498Z,42.63
2023-05-19T11:54:57.017Z,45.38
2023-05-19T11:57:25.335Z,45.93
2023-05-19T11:59:56.900Z,44.43
2023-05-19T12:02:26.349Z,45.03
2023-05-19T12:04:55.294Z,44.68
2023-05-19T12:07:24.852Z,44.55
2023-05-19T12:09:55.498Z,42.89
2023-05-19T12:12:23.849Z,42.24
2023-05-19T12:14:53.313Z,41.84
2023-05-19T12:17:24.064Z,41.53
2023-05-19T12:19:52.849Z,41.12
2023-05-19T12:22:21.249Z,40.24
2023-05-19T12:24:50.682Z,40.69
2023-05-19T12:27:21.111Z,39.95
2023-05-19T12:29:53.459Z,40.32
2023-05-19T12:32:25.865Z,39.73
2023-05-19T12:34:56.600Z,40.18
2023-05-19T12:37:30.180Z,40.67
2023-05-19T12:39:58.746Z,40.05
2023-05-19T12:42:31.544Z,40.47
2023-05-19T12:45:02.314Z,40.59
2023-05-19T12:47:36.300Z,41.92
2023-05-19T12:50:09.995Z,41.21
2023-05-19T12:52:51.139Z,41.13
2023-05-19T12:55:21.130Z,41.84
2023-05-19T12:57:57.101Z,42.11
2023-05-19T13:00:29.218Z,41.44
2023-05-19T13:03:06.324Z,40.94
2023-05-19T13:05:38.821Z,41.17
2023-05-19T13:08:09.714Z,41.92
2023-05-19T13:10:41.216Z,43.96
2023-05-19T13:13:10.404Z,43.71
2023-05-19T13:15:42.922Z,44.02
2023-05-19T13:18:13.324Z,46.69
2023-05-19T13:20:44.605Z,47.70
2023-05-19T13:23:13.837Z,47.26
2023-05-19T13:25:42.552Z,46.36
2023-05-19T13:28:11.188Z,45.83
2023-05-19T13:30:41.980Z,45.78
2023-05-19T13:33:11.570Z,44.37
2023-05-19T13:35:40.215Z,45.15
2023-05-19T13:38:10.587Z,46.25
2023-05-19T13:40:40.283Z,45.56
2023-05-19T13:43:09.388Z,44.85
2023-05-19T13:45:38.080Z,44.53
2023-05-19T13:48:07.712Z,42.79
2023-05-19T13:50:36.854Z,44.15
2023-05-19T13:53:05.361Z,44.52
2023-05-19T13:55:33.760Z,44.29
2023-05-19T13:58:02.451Z,45.07
2023-05-19T14:00:32.210Z,44.80
2023-05-19T14:03:01.323Z,44.03
2023-05-19T14:05:31.122Z,45.25
2023-05-19T14:08:01.328Z,46.01
2023-05-19T14:10:29.942Z,47.03
2023-05-19T14:15:34.648Z,45.68
2023-05-19T14:18:03.647Z,45.12
2023-05-19T14:20:33.600Z,43.03
2023-05-19T14:23:02.025Z,42.48
2023-05-19T14:25:30.173Z,43.24
2023-05-19T14:27:58.786Z,44.09
2023-05-19T14:30:26.959Z,43.49
2023-05-19T14:32:55.287Z,44.29
2023-05-19T14:35:24.108Z,45.17
2023-05-19T14:37:52.974Z,44.89
2023-05-19T14:40:21.466Z,44.85
2023-05-19T14:42:49.740Z,44.88
2023-05-19T14:45:18.415Z,44.21
2023-05-19T14:47:47.701Z,44.70
2023-05-19T14:50:16.623Z,45.51
2023-05-19T14:52:44.901Z,46.00
2023-05-19T14:55:13.025Z,46.58
2023-05-19T14:57:41.511Z,48.08
2023-05-19T15:00:10.572Z,48.57
2023-05-19T15:02:39.051Z,48.54
2023-05-19T15:05:09.063Z,49.13
2023-05-19T15:07:37.853Z,49.74
2023-05-19T15:10:07.093Z,49.85
2023-05-19T15:12:35.747Z,50.36
2023-05-19T15:15:05.349Z,49.98
2023-05-19T15:17:33.588Z,50.03
2023-05-19T15:20:01.755Z,50.45
2023-05-19T15:22:30.194Z,51.30
2023-05-19T15:24:58.387Z,52.53
2023-05-19T15:27:27.286Z,53.03
2023-05-19T15:29:55.435Z,53.24
2023-05-19T15:32:23.507Z,53.40
2023-05-19T15:34:51.619Z,53.30
2023-05-19T15:37:19.857Z,53.71
2023-05-19T15:39:48.126Z,54.14
2023-05-19T15:42:16.324Z,54.78
2023-05-19T15:44:46.446Z,55.65
2023-05-19T15:47:14.738Z,55.43
2023-05-19T15:49:43.228Z,55.20
2023-05-19T15:52:11.378Z,55.47
2023-05-19T15:54:39.570Z,55.64
2023-05-19T15:57:08.333Z,56.88
2023-05-19T15:59:36.475Z,57.41
2023-05-19T16:02:05.880Z,58.06
2023-05-19T16:04:34.163Z,58.84
2023-05-19T16:07:02.608Z,58.47
2023-05-19T16:09:31.004Z,57.95
2023-05-19T16:11:59.329Z,57.90
2023-05-19T16:14:31.311Z,58.35
2023-05-19T16:17:00.735Z,58.92
2023-05-19T16:19:29.266Z,59.79
2023-05-19T16:21:57.878Z,62.16
2023-05-19T16:24:26.282Z,63.61
2023-05-19T16:26:54.867Z,65.23
2023-05-19T16:29:23.016Z,67.49
2023-05-19T16:31:51.330Z,68.29
2023-05-19T16:34:19.602Z,67.75
2023-05-19T16:36:47.856Z,69.60
2023-05-19T16:39:16.647Z,72.26
2023-05-19T16:41:44.755Z,76.14
2023-05-19T16:44:14.698Z,76.71
2023-05-19T16:46:43.054Z,79.41
2023-05-19T16:49:11.432Z,80.36
2023-05-19T16:51:40.086Z,82.33
2023-05-19T16:54:08.195Z,84.57
2023-05-19T16:56:36.478Z,85.69
2023-05-19T16:59:04.850Z,87.61
2023-05-19T17:01:33.234Z,89.42
2023-05-19T17:04:01.679Z,90.06
2023-05-19T17:06:30.071Z,91.61
2023-05-19T17:08:58.112Z,91.95
2023-05-19T17:11:27.855Z,94.20
2023-05-19T17:13:56.048Z,95.29
2023-05-19T17:16:24.731Z,95.58
2023-05-19T17:18:53.049Z,95.59
2023-05-19T17:21:21.779Z,95.64
2023-05-19T17:23:50.050Z,95.32
2023-05-19T17:26:18.435Z,95.52
2023-05-19T17:28:46.713Z,95.53
2023-05-19T17:31:15.909Z,94.09
2023-05-19T17:33:44.294Z,96.57
2023-05-19T17:36:12.674Z,96.89
2023-05-19T17:38:42.101Z,96.92
2023-05-19T17:41:10.478Z,98.35
2023-05-19T17:43:40.692Z,100.00
2023-05-19T17:46:09.762Z,100.00
2023-05-19T17:48:40.067Z,100.00
2023-05-19T17:51:08.484Z,100.00
2023-05-19T18:01:15.029Z,100.00
2023-05-19T18:03:49.394Z,100.00
2023-05-19T18:06:19.311Z,100.00
2023-05-19T18:08:50.926Z,100.00
2023-05-19T18:11:19.589Z,100.00
2023-05-19T18:13:48.077Z,100.00
2023-05-19T18:16:16.423Z,100.00
2023-05-19T18:18:47.103Z,100.00
2023-05-19T18:21:17.973Z,100.00
2023-05-19T18:23:46.937Z,100.00
2023-05-19T18:26:15.437Z,100.00
2023-05-19T18:28:44.006Z,100.00
2023-05-19T18:31:19.243Z,100.00
2023-05-19T18:33:48.214Z,100.00
2023-05-19T18:36:16.878Z,100.00
2023-05-19T18:38:47.270Z,100.00
2023-05-19T18:41:15.636Z,100.00
2023-05-19T18:43:44.108Z,100.00
2023-05-19T18:46:13.706Z,99.98
2023-05-19T18:48:42.430Z,100.00
2023-05-19T18:51:10.668Z,100.00
2023-05-19T18:53:38.857Z,100.00
2023-05-19T18:56:07.515Z,100.00
2023-05-19T18:58:35.948Z,100.00
2023-05-19T19:01:06.302Z,100.00
2023-05-19T19:03:35.656Z,100.00
2023-05-19T19:06:04.281Z,100.00
2023-05-19T19:08:32.622Z,100.00
2023-05-19T19:11:01.278Z,100.00
2023-05-19T19:13:29.689Z,100.00
2023-05-19T19:15:58.179Z,100.00
2023-05-19T19:18:27.239Z,100.00
2023-05-19T19:20:57.598Z,100.00
2023-05-19T19:23:26.396Z,100.00
2023-05-19T19:25:56.541Z,100.00
2023-05-19T19:28:24.913Z,100.00
2023-05-19T19:30:53.373Z,100.00
2023-05-19T19:33:21.970Z,100.00
2023-05-19T19:35:50.595Z,100.00
2023-05-19T19:38:19.004Z,100.00
2023-05-19T19:40:47.332Z,100.00
2023-05-19T19:43:15.694Z,100.00
2023-05-19T19:45:43.981Z,100.00
2023-05-19T19:48:12.811Z,100.00
2023-05-19T19:50:41.340Z,100.00
2023-05-19T19:53:09.827Z,100.00
2023-05-19T19:55:37.960Z,100.00
2023-05-19T19:58:06.426Z,100.00
2023-05-19T20:00:35.017Z,100.00
2023-05-19T20:03:05.853Z,100.00
2023-05-19T20:05:38.208Z,100.00
2023-05-19T20:08:06.559Z,100.00
2023-05-19T20:10:35.370Z,100.00
2023-05-19T20:13:04.048Z,100.00
2023-05-19T20:15:32.554Z,100.00
2023-05-19T20:18:00.642Z,100.00
2023-05-19T20:20:29.497Z,100.00
2023-05-19T20:22:57.766Z,100.00
2023-05-19T20:25:26.480Z,100.00
2023-05-19T20:27:54.861Z,100.00
2023-05-19T20:30:23.361Z,100.00
2023-05-19T20:32:51.598Z,100.00
2023-05-19T20:35:19.877Z,100.00
2023-05-19T20:37:49.543Z,100.00
2023-05-19T20:40:17.970Z,100.00
2023-05-19T20:42:46.503Z,100.00
2023-05-19T20:45:14.704Z,100.00
2023-05-19T20:47:43.112Z,100.00
2023-05-19T20:50:11.911Z,100.00
2023-05-19T20:52:40.314Z,100.00
2023-05-19T20:55:08.876Z,100.00
2023-05-19T20:57:37.007Z,100.00
2023-05-19T21:00:06.185Z,100.00
2023-05-19T21:02:34.560Z,100.00
2023-05-19T21:05:03.712Z,100.00
2023-05-19T21:07:32.006Z,100.00
2023-05-19T21:10:00.348Z,100.00
2023-05-19T21:12:34.221Z,100.00
2023-05-19T21:15:03.794Z,100.00
2023-05-19T21:17:32.164Z,100.00
2023-05-19T21:20:01.232Z,100.00
2023-05-19T21:22:30.178Z,100.00
2023-05-19T21:24:58.652Z,100.00
2023-05-19T21:27:26.776Z,100.00
2023-05-19T21:29:55.441Z,100.00
2023-05-19T21:32:23.924Z,100.00
2023-05-19T21:34:52.192Z,100.00
2023-05-19T21:37:21.767Z,100.00
2023-05-19T21:39:50.166Z,100.00
2023-05-19T21:42:18.587Z,100.00
2023-05-19T21:44:46.746Z,100.00
2023-05-19T21:47:16.233Z,100.00
2023-05-19T21:49:44.614Z,100.00
2023-05-19T21:52:12.797Z,100.00
2023-05-19T21:54:41.085Z,100.00
2023-05-19T21:57:11.422Z,100.00
2023-05-19T21:59:39.984Z,100.00
2023-05-19T22:02:08.230Z,100.00
2023-05-19T22:04:37.158Z,100.00
2023-05-19T22:07:06.922Z,100.00
2023-05-19T22:09:35.094Z,100.00
2023-05-19T22:12:03.521Z,100.00
2023-05-19T22:14:31.897Z,100.00
2023-05-19T22:17:00.160Z,100.00
2023-05-19T22:19:28.688Z,100.00
2023-05-19T22:22:09.653Z,100.00
2023-05-19T22:24:41.215Z,100.00
2023-05-19T22:27:10.100Z,100.00
2023-05-19T22:29:41.362Z,100.00
2023-05-19T22:32:12.339Z,100.00
2023-05-19T22:34:40.608Z,100.00
2023-05-19T22:37:09.027Z,100.00
2023-05-19T22:39:39.016Z,100.00
2023-05-19T22:42:07.356Z,100.00
2023-05-19T22:44:35.917Z,100.00
2023-05-19T22:47:04.633Z,100.00
2023-05-19T22:49:32.901Z,100.00
2023-05-19T22:52:01.084Z,100.00
2023-05-19T22:54:29.457Z,100.00
2023-05-19T22:56:57.713Z,100.00
2023-05-19T22:59:26.090Z,100.00
2023-05-19T23:01:54.402Z,100.00
2023-05-19T23:04:22.693Z,100.00
2023-05-19T23:06:50.997Z,100.00
2023-05-19T23:09:19.181Z,100.00
2023-05-19T23:11:47.794Z,100.00
2023-05-19T23:14:16.169Z,100.00
2023-05-19T23:16:44.665Z,100.00
2023-05-19T23:19:13.204Z,100.00
2023-05-19T23:21:41.727Z,100.00
2023-05-19T23:24:09.913Z,100.00
2023-05-19T23:26:38.116Z,100.00
2023-05-19T23:29:06.459Z,100.00
2023-05-19T23:31:35.020Z,100.00
2023-05-19T23:34:03.521Z,100.00
2023-05-19T23:36:32.244Z,100.00
2023-05-19T23:39:01.322Z,100.00
2023-05-19T23:41:29.706Z,100.00
2023-05-19T23:43:57.990Z,100.00
2023-05-19T23:46:26.508Z,100.00
2023-05-19T23:48:54.665Z,100.00
2023-05-19T23:51:23.114Z,100.00
2023-05-19T23:53:51.523Z,100.00
2023-05-19T23:56:19.876Z,100.00
2023-05-19T23:58:48.178Z,100.00
